createdAt,value
2023-02-06T00:00:14.709Z,1
2023-02-06T00:01:14.548Z,1
2023-02-06T00:02:14.296Z,0
2023-02-06T00:03:14.533Z,0
2023-02-06T00:04:14.169Z,0
2023-02-06T00:05:14.854Z,0
2023-02-06T00:06:14.473Z,0
2023-02-06T00:07:14.690Z,0
2023-02-06T00:08:14.668Z,0
2023-02-06T00:09:14.446Z,0
2023-02-06T00:10:15.238Z,0
2023-02-06T00:11:14.529Z,0
2023-02-06T00:12:14.056Z,0
2023-02-06T00:13:14.704Z,0
2023-02-06T00:14:13.902Z,0
2023-02-06T00:15:14.700Z,0
2023-02-06T00:16:14.754Z,0
2023-02-06T00:17:14.260Z,0
2023-02-06T00:18:14.884Z,0
2023-02-06T00:19:14.264Z,0
2023-02-06T00:20:14.089Z,0
2023-02-06T00:21:14.457Z,0
2023-02-06T00:22:13.932Z,0
2023-02-06T00:23:14.710Z,0
2023-02-06T00:24:14.410Z,0
2023-02-06T00:25:14.883Z,0
2023-02-06T00:26:14.471Z,0
2023-02-06T00:27:13.977Z,0
2023-02-06T00:28:15.132Z,0
2023-02-06T00:29:14.173Z,0
2023-02-06T00:30:15.005Z,0
2023-02-06T00:31:15.489Z,0
2023-02-06T00:32:14.102Z,0
2023-02-06T00:33:13.987Z,0
2023-02-06T00:34:14.805Z,0
2023-02-06T00:35:14.145Z,0
2023-02-06T00:36:14.885Z,0
2023-02-06T00:37:14.574Z,0
2023-02-06T00:38:14.209Z,0
2023-02-06T00:39:14.112Z,0
2023-02-06T00:40:14.465Z,0
2023-02-06T00:41:14.162Z,0
2023-02-06T00:42:14.739Z,0
2023-02-06T00:43:14.315Z,0
2023-02-06T00:44:13.883Z,0
2023-02-06T00:45:14.954Z,0
2023-02-06T00:46:15.375Z,0
2023-02-06T00:47:14.736Z,0
2023-02-06T00:48:14.239Z,0
2023-02-06T00:49:14.446Z,0
2023-02-06T00:50:14.211Z,0
2023-02-06T00:51:14.760Z,0
2023-02-06T00:52:14.337Z,0
2023-02-06T00:53:14.012Z,0
2023-02-06T00:54:14.548Z,0
2023-02-06T00:55:14.169Z,0
2023-02-06T00:56:15.041Z,0
2023-02-06T00:57:14.381Z,0
2023-02-06T00:58:14.132Z,0
2023-02-06T00:59:14.816Z,0
2023-02-06T01:00:14.167Z,0
2023-02-06T01:01:14.559Z,0
2023-02-06T01:02:14.240Z,0
2023-02-06T01:03:14.854Z,0
2023-02-06T01:04:14.345Z,0
2023-02-06T01:05:14.607Z,0
2023-02-06T01:06:14.470Z,0
2023-02-06T01:07:13.910Z,0
2023-02-06T01:09:14.423Z,0
2023-02-06T01:10:14.347Z,0
2023-02-06T01:11:14.890Z,0
2023-02-06T01:12:14.733Z,0
2023-02-06T01:13:14.119Z,0
2023-02-06T01:14:14.282Z,0
2023-02-06T01:15:14.751Z,0
2023-02-06T01:16:14.221Z,0
2023-02-06T01:17:14.447Z,0
2023-02-06T01:18:14.182Z,0
2023-02-06T01:19:14.886Z,0
2023-02-06T01:20:14.294Z,0
2023-02-06T01:21:14.914Z,0
2023-02-06T01:22:14.611Z,0
2023-02-06T01:23:13.864Z,0
2023-02-06T01:24:14.110Z,0
2023-02-06T01:25:14.567Z,0
2023-02-06T01:26:14.615Z,0
2023-02-06T01:27:14.117Z,0
2023-02-06T01:28:15.188Z,0
2023-02-06T01:29:14.302Z,0
2023-02-06T01:30:14.905Z,0
2023-02-06T01:31:14.635Z,0
2023-02-06T01:32:14.507Z,0
2023-02-06T01:33:14.376Z,0
2023-02-06T01:34:14.978Z,0
2023-02-06T01:35:14.201Z,0
2023-02-06T01:36:14.485Z,0
2023-02-06T01:37:14.008Z,0
2023-02-06T01:38:14.877Z,0
2023-02-06T01:39:14.594Z,0
2023-02-06T01:40:14.862Z,0
2023-02-06T01:41:14.553Z,0
2023-02-06T01:42:14.123Z,0
2023-02-06T01:43:14.886Z,0
2023-02-06T01:44:14.543Z,0
2023-02-06T01:45:14.118Z,0
2023-02-06T01:46:14.695Z,0
2023-02-06T01:47:14.089Z,0
2023-02-06T01:48:14.953Z,0
2023-02-06T01:50:14.936Z,0
2023-02-06T01:51:14.679Z,0
2023-02-06T01:52:13.977Z,0
2023-02-06T01:53:14.773Z,0
2023-02-06T01:54:14.264Z,0
2023-02-06T01:55:14.762Z,0
2023-02-06T01:56:14.846Z,0
2023-02-06T01:57:14.442Z,0
2023-02-06T01:58:13.906Z,0
2023-02-06T01:59:14.712Z,0
2023-02-06T02:00:14.052Z,0
2023-02-06T02:01:14.501Z,0
2023-02-06T02:02:15.398Z,3
2023-02-06T02:03:14.926Z,3
2023-02-06T02:04:14.418Z,3
2023-02-06T02:05:14.899Z,3
2023-02-06T02:06:14.507Z,3
2023-02-06T02:07:14.153Z,3
2023-02-06T02:08:14.833Z,3
2023-02-06T02:09:16.180Z,3
2023-02-06T02:10:15.078Z,3
2023-02-06T02:11:14.097Z,3
2023-02-06T02:12:14.645Z,3
2023-02-06T02:13:14.121Z,3
2023-02-06T02:14:13.891Z,3
2023-02-06T02:15:14.105Z,3
2023-02-06T02:16:14.578Z,3
2023-02-06T02:17:14.885Z,3
2023-02-06T02:18:14.422Z,3
2023-02-06T02:19:14.270Z,3
2023-02-06T02:20:14.977Z,3
2023-02-06T02:21:14.304Z,3
2023-02-06T02:22:14.044Z,3
2023-02-06T02:23:14.016Z,3
2023-02-06T02:24:14.757Z,3
2023-02-06T02:25:14.494Z,3
2023-02-06T02:26:14.114Z,3
2023-02-06T02:27:14.820Z,3
2023-02-06T02:28:14.550Z,3
2023-02-06T02:29:14.658Z,3
2023-02-06T02:30:14.476Z,3
2023-02-06T02:31:15.109Z,3
2023-02-06T02:32:14.517Z,0
2023-02-06T02:33:13.963Z,0
2023-02-06T02:34:14.665Z,0
2023-02-06T02:35:14.183Z,0
2023-02-06T02:36:14.190Z,0
2023-02-06T02:37:14.843Z,0
2023-02-06T02:38:14.530Z,0
2023-02-06T02:39:14.235Z,0
2023-02-06T02:41:14.338Z,0
2023-02-06T02:42:14.406Z,0
2023-02-06T02:43:14.795Z,0
2023-02-06T02:44:14.519Z,0
2023-02-06T02:45:14.039Z,0
2023-02-06T02:46:15.274Z,0
2023-02-06T02:47:14.633Z,0
2023-02-06T02:48:14.186Z,0
2023-02-06T02:49:14.581Z,0
2023-02-06T02:50:14.227Z,0
2023-02-06T02:51:14.926Z,0
2023-02-06T02:52:14.501Z,0
2023-02-06T02:53:14.063Z,0
2023-02-06T02:54:15.001Z,0
2023-02-06T02:55:14.433Z,0
2023-02-06T02:56:14.097Z,0
2023-02-06T02:57:14.395Z,0
2023-02-06T02:58:14.227Z,0
2023-02-06T02:59:14.905Z,0
2023-02-06T03:00:14.516Z,0
2023-02-06T03:01:14.977Z,0
2023-02-06T03:02:14.792Z,1
2023-02-06T03:03:14.047Z,1
2023-02-06T03:04:14.507Z,1
2023-02-06T03:05:14.055Z,1
2023-02-06T03:06:14.704Z,1
2023-02-06T03:07:14.479Z,1
2023-02-06T03:08:14.088Z,1
2023-02-06T03:09:14.735Z,1
2023-02-06T03:10:14.272Z,1
2023-02-06T03:11:14.626Z,1
2023-02-06T03:12:14.253Z,1
2023-02-06T03:13:14.772Z,1
2023-02-06T03:14:14.722Z,1
2023-02-06T03:15:14.216Z,1
2023-02-06T03:16:14.744Z,1
2023-02-06T03:17:14.228Z,1
2023-02-06T03:18:14.845Z,1
2023-02-06T03:19:14.276Z,1
2023-02-06T03:20:14.105Z,1
2023-02-06T03:21:14.710Z,1
2023-02-06T03:22:14.230Z,1
2023-02-06T03:23:14.781Z,1
2023-02-06T03:24:14.422Z,1
2023-02-06T03:25:14.048Z,1
2023-02-06T03:26:14.708Z,1
2023-02-06T03:27:14.417Z,1
2023-02-06T03:28:14.387Z,1
2023-02-06T03:29:14.669Z,1
2023-02-06T03:30:14.262Z,1
2023-02-06T03:31:14.840Z,1
2023-02-06T03:32:14.345Z,0
2023-02-06T03:33:14.964Z,0
2023-02-06T03:34:14.566Z,0
2023-02-06T03:35:13.988Z,0
2023-02-06T03:36:14.647Z,0
2023-02-06T03:37:14.008Z,0
2023-02-06T03:38:14.676Z,0
2023-02-06T03:39:14.260Z,0
2023-02-06T03:40:14.776Z,0
2023-02-06T03:41:14.515Z,0
2023-02-06T03:42:14.146Z,0
2023-02-06T03:43:14.762Z,0
2023-02-06T03:44:14.365Z,0
2023-02-06T03:45:14.070Z,0
2023-02-06T03:46:14.812Z,0
2023-02-06T03:47:14.790Z,0
2023-02-06T03:48:14.392Z,0
2023-02-06T03:49:13.928Z,0
2023-02-06T03:50:14.802Z,0
2023-02-06T03:51:14.365Z,0
2023-02-06T03:52:15.056Z,0
2023-02-06T03:53:14.684Z,0
2023-02-06T03:54:14.180Z,0
2023-02-06T03:55:14.850Z,0
2023-02-06T03:56:14.435Z,0
2023-02-06T03:57:13.792Z,0
2023-02-06T03:58:14.684Z,0
2023-02-06T03:59:14.431Z,0
2023-02-06T04:00:14.821Z,0
2023-02-06T04:01:15.382Z,0
2023-02-06T04:02:14.889Z,1
2023-02-06T04:03:14.222Z,1
2023-02-06T04:04:14.872Z,1
2023-02-06T04:05:14.233Z,1
2023-02-06T04:06:13.753Z,1
2023-02-06T04:07:14.798Z,1
2023-02-06T04:08:14.371Z,1
2023-02-06T04:09:14.947Z,1
2023-02-06T04:10:14.647Z,1
2023-02-06T04:11:14.048Z,1
2023-02-06T04:12:14.801Z,1
2023-02-06T04:13:14.209Z,1
2023-02-06T04:14:14.132Z,1
2023-02-06T04:15:14.662Z,1
2023-02-06T04:16:14.721Z,1
2023-02-06T04:17:15.681Z,0
2023-02-06T04:19:14.289Z,0
2023-02-06T04:20:15.038Z,0
2023-02-06T04:21:14.484Z,0
2023-02-06T04:22:14.180Z,0
2023-02-06T04:23:14.595Z,0
2023-02-06T04:24:14.096Z,0
2023-02-06T04:25:14.683Z,0
2023-02-06T04:26:14.446Z,0
2023-02-06T04:27:14.098Z,0
2023-02-06T04:28:14.966Z,0
2023-02-06T04:29:14.261Z,0
2023-02-06T04:30:14.784Z,0
2023-02-06T04:31:15.631Z,0
2023-02-06T04:32:14.451Z,0
2023-02-06T04:33:13.855Z,0
2023-02-06T04:34:14.820Z,0
2023-02-06T04:35:14.375Z,0
2023-02-06T04:36:14.913Z,0
2023-02-06T04:37:14.226Z,0
2023-02-06T04:38:14.145Z,0
2023-02-06T04:39:14.591Z,0
2023-02-06T04:40:14.112Z,0
2023-02-06T04:41:14.686Z,0
2023-02-06T04:42:14.168Z,0
2023-02-06T04:43:14.858Z,0
2023-02-06T04:44:14.614Z,0
2023-02-06T04:45:13.944Z,0
2023-02-06T04:46:14.468Z,0
2023-02-06T04:47:14.776Z,1
2023-02-06T04:48:14.567Z,1
2023-02-06T04:49:14.035Z,1
2023-02-06T04:50:14.638Z,1
2023-02-06T04:51:14.147Z,1
2023-02-06T04:52:15.006Z,1
2023-02-06T04:53:14.451Z,1
2023-02-06T04:54:14.077Z,1
2023-02-06T04:55:14.424Z,1
2023-02-06T04:56:14.146Z,1
2023-02-06T04:57:14.593Z,1
2023-02-06T04:58:14.238Z,1
2023-02-06T04:59:14.710Z,1
2023-02-06T05:00:14.591Z,1
2023-02-06T05:01:14.961Z,1
2023-02-06T05:02:14.391Z,1
2023-02-06T05:03:15.012Z,1
2023-02-06T05:04:14.604Z,1
2023-02-06T05:05:14.338Z,1
2023-02-06T05:06:15.047Z,1
2023-02-06T05:08:14.114Z,1
2023-02-06T05:09:14.776Z,1
2023-02-06T05:10:14.453Z,1
2023-02-06T05:11:14.914Z,1
2023-02-06T05:13:14.033Z,1
2023-02-06T05:14:14.577Z,1
2023-02-06T05:15:14.026Z,1
2023-02-06T05:16:15.291Z,1
2023-02-06T05:17:14.369Z,3
2023-02-06T05:18:15.053Z,3
2023-02-06T05:19:14.541Z,3
2023-02-06T05:20:14.186Z,3
2023-02-06T05:21:14.881Z,3
2023-02-06T05:22:14.510Z,3
2023-02-06T05:23:13.919Z,3
2023-02-06T05:24:14.426Z,3
2023-02-06T05:25:14.203Z,3
2023-02-06T05:26:14.459Z,3
2023-02-06T05:27:14.343Z,3
2023-02-06T05:29:14.438Z,3
2023-02-06T05:30:14.043Z,3
2023-02-06T05:31:14.948Z,3
2023-02-06T05:32:14.628Z,3
2023-02-06T05:33:14.138Z,3
2023-02-06T05:34:14.673Z,3
2023-02-06T05:35:14.419Z,3
2023-02-06T05:36:14.848Z,3
2023-02-06T05:37:14.424Z,3
2023-02-06T05:38:14.276Z,3
2023-02-06T05:39:14.680Z,3
2023-02-06T05:40:14.301Z,3
2023-02-06T05:41:14.776Z,3
2023-02-06T05:42:14.425Z,3
2023-02-06T05:43:14.858Z,3
2023-02-06T05:44:14.481Z,3
2023-02-06T05:45:14.187Z,3
2023-02-06T05:46:14.941Z,3
2023-02-06T05:47:14.594Z,3
2023-02-06T05:48:13.994Z,3
2023-02-06T05:49:14.466Z,3
2023-02-06T05:50:14.309Z,3
2023-02-06T05:51:14.875Z,3
2023-02-06T05:52:14.493Z,3
2023-02-06T05:53:14.049Z,3
2023-02-06T05:54:14.467Z,3
2023-02-06T05:55:14.110Z,3
2023-02-06T05:56:14.697Z,3
2023-02-06T05:57:14.265Z,3
2023-02-06T05:59:14.244Z,3
2023-02-06T06:00:15.013Z,3
2023-02-06T06:01:14.128Z,3
2023-02-06T06:02:14.372Z,0
2023-02-06T06:03:14.180Z,0
2023-02-06T06:04:15.248Z,0
2023-02-06T06:05:14.479Z,0
2023-02-06T06:06:15.145Z,0
2023-02-06T06:07:14.345Z,0
2023-02-06T06:08:14.225Z,0
2023-02-06T06:09:14.893Z,0
2023-02-06T06:10:14.606Z,0
2023-02-06T06:11:14.611Z,0
2023-02-06T06:12:14.902Z,0
2023-02-06T06:13:14.609Z,0
2023-02-06T06:14:14.267Z,0
2023-02-06T06:15:14.957Z,0
2023-02-06T06:16:15.022Z,0
2023-02-06T06:17:14.311Z,0
2023-02-06T06:18:14.908Z,0
2023-02-06T06:19:14.442Z,0
2023-02-06T06:20:14.204Z,0
2023-02-06T06:21:14.649Z,0
2023-02-06T06:22:14.297Z,0
2023-02-06T06:23:14.750Z,0
2023-02-06T06:24:14.240Z,0
2023-02-06T06:25:14.894Z,0
2023-02-06T06:26:14.612Z,0
2023-02-06T06:27:13.990Z,0
2023-02-06T06:28:14.928Z,0
2023-02-06T06:29:14.272Z,0
2023-02-06T06:30:15.045Z,0
2023-02-06T06:32:14.536Z,0
2023-02-06T06:33:14.041Z,0
2023-02-06T06:34:14.769Z,0
2023-02-06T06:35:14.225Z,0
2023-02-06T06:37:14.033Z,0
2023-02-06T06:38:14.900Z,0
2023-02-06T06:39:14.752Z,0
2023-02-06T06:40:15.061Z,0
2023-02-06T06:41:14.412Z,0
2023-02-06T06:42:14.055Z,0
2023-02-06T06:43:14.596Z,0
2023-02-06T06:44:14.101Z,0
2023-02-06T06:45:14.892Z,0
2023-02-06T06:46:15.270Z,0
2023-02-06T06:47:14.251Z,1
2023-02-06T06:48:14.948Z,1
2023-02-06T06:49:14.493Z,1
2023-02-06T06:50:14.920Z,1
2023-02-06T06:51:14.495Z,1
2023-02-06T06:52:32.194Z,1
2023-02-06T06:53:14.237Z,1
2023-02-06T06:54:14.808Z,1
2023-02-06T06:55:14.349Z,1
2023-02-06T06:56:15.098Z,1
2023-02-06T06:57:14.543Z,1
2023-02-06T06:58:13.994Z,1
2023-02-06T06:59:14.436Z,1
2023-02-06T07:00:14.405Z,1
2023-02-06T07:01:14.966Z,1
2023-02-06T07:02:14.191Z,0
2023-02-06T07:03:15.194Z,0
2023-02-06T07:04:14.403Z,0
2023-02-06T07:05:15.034Z,0
2023-02-06T07:06:14.404Z,0
2023-02-06T07:07:14.590Z,0
2023-02-06T07:08:14.817Z,0
2023-02-06T07:09:14.564Z,0
2023-02-06T07:10:14.216Z,0
2023-02-06T07:11:14.558Z,0
2023-02-06T07:12:14.084Z,0
2023-02-06T07:13:14.932Z,0
2023-02-06T07:14:14.389Z,0
2023-02-06T07:15:14.076Z,0
2023-02-06T07:16:14.551Z,0
2023-02-06T07:17:14.750Z,0
2023-02-06T07:19:13.996Z,0
2023-02-06T07:20:14.556Z,0
2023-02-06T07:21:14.084Z,0
2023-02-06T07:22:14.742Z,0
2023-02-06T07:23:14.166Z,0
2023-02-06T07:24:14.951Z,0
2023-02-06T07:25:14.409Z,0
2023-02-06T07:26:14.150Z,0
2023-02-06T07:27:14.681Z,0
2023-02-06T07:28:14.858Z,0
2023-02-06T07:29:14.945Z,0
2023-02-06T07:30:16.548Z,0
2023-02-06T07:31:15.074Z,0
2023-02-06T07:32:14.403Z,0
2023-02-06T07:33:14.165Z,0
2023-02-06T07:34:14.766Z,0
2023-02-06T07:35:14.378Z,0
2023-02-06T07:37:14.585Z,0
2023-02-06T07:38:14.276Z,0
2023-02-06T07:39:14.899Z,0
2023-02-06T07:40:14.419Z,0
2023-02-06T07:42:14.630Z,0
2023-02-06T07:43:14.119Z,0
2023-02-06T07:44:14.884Z,0
2023-02-06T07:45:14.408Z,0
2023-02-06T07:46:14.720Z,0
2023-02-06T07:47:14.865Z,1
2023-02-06T07:48:14.387Z,1
2023-02-06T07:49:14.825Z,1
2023-02-06T07:50:14.568Z,1
2023-02-06T07:51:14.111Z,1
2023-02-06T07:52:14.552Z,1
2023-02-06T07:53:14.483Z,1
2023-02-06T07:54:13.925Z,1
2023-02-06T07:55:14.585Z,1
2023-02-06T07:56:14.532Z,1
2023-02-06T07:57:14.375Z,1
2023-02-06T07:58:14.959Z,1
2023-02-06T07:59:14.412Z,1
2023-02-06T08:00:14.385Z,1
2023-02-06T08:01:15.515Z,1
2023-02-06T08:02:14.641Z,0
2023-02-06T08:03:14.210Z,0
2023-02-06T08:04:15.229Z,0
2023-02-06T08:05:14.260Z,0
2023-02-06T08:06:14.838Z,0
2023-02-06T08:07:14.543Z,0
2023-02-06T08:08:14.202Z,0
2023-02-06T08:09:14.571Z,0
2023-02-06T08:10:14.456Z,0
2023-02-06T08:11:15.001Z,0
2023-02-06T08:12:16.150Z,0
2023-02-06T08:13:14.172Z,0
2023-02-06T08:14:14.851Z,0
2023-02-06T08:15:14.314Z,0
2023-02-06T08:16:14.355Z,0
2023-02-06T08:17:14.918Z,3
2023-02-06T08:18:14.336Z,3
2023-02-06T08:19:15.178Z,3
2023-02-06T08:20:14.646Z,3
2023-02-06T08:21:14.202Z,3
2023-02-06T08:22:14.753Z,3
2023-02-06T08:23:14.221Z,3
2023-02-06T08:24:14.884Z,3
2023-02-06T08:25:14.503Z,3
2023-02-06T08:26:14.041Z,3
2023-02-06T08:27:14.575Z,3
2023-02-06T08:28:14.628Z,3
2023-02-06T08:29:14.710Z,3
2023-02-06T08:30:14.362Z,3
2023-02-06T08:32:14.541Z,4
2023-02-06T08:33:13.890Z,4
2023-02-06T08:34:14.778Z,4
2023-02-06T08:35:14.279Z,4
2023-02-06T08:36:14.895Z,4
2023-02-06T08:37:14.489Z,4
2023-02-06T08:38:13.929Z,4
2023-02-06T08:39:14.589Z,4
2023-02-06T08:40:14.128Z,4
2023-02-06T08:41:14.830Z,4
2023-02-06T08:42:14.476Z,4
2023-02-06T08:43:14.047Z,4
2023-02-06T08:44:14.708Z,4
2023-02-06T08:45:14.350Z,4
2023-02-06T08:46:14.963Z,4
2023-02-06T08:48:14.870Z,3
2023-02-06T08:49:14.571Z,3
2023-02-06T08:51:14.556Z,3
2023-02-06T08:52:14.145Z,3
2023-02-06T08:53:14.114Z,3
2023-02-06T08:54:14.598Z,3
2023-02-06T08:55:14.419Z,3
2023-02-06T08:56:14.851Z,3
2023-02-06T08:57:14.534Z,3
2023-02-06T08:58:14.020Z,3
2023-02-06T08:59:14.820Z,3
2023-02-06T09:00:14.464Z,3
2023-02-06T09:01:14.651Z,3
2023-02-06T09:03:14.710Z,3
2023-02-06T09:04:14.188Z,3
2023-02-06T09:05:14.601Z,3
2023-02-06T09:07:17.023Z,3
2023-02-06T09:08:14.452Z,3
2023-02-06T09:09:14.037Z,3
2023-02-06T09:10:32.117Z,3
2023-02-06T09:11:14.013Z,3
2023-02-06T09:12:14.735Z,3
2023-02-06T09:13:14.356Z,3
2023-02-06T09:14:14.925Z,3
2023-02-06T09:15:14.506Z,3
2023-02-06T09:16:14.779Z,3
2023-02-06T09:17:14.909Z,5
2023-02-06T09:18:14.501Z,5
2023-02-06T09:19:14.434Z,5
2023-02-06T09:20:14.569Z,5
2023-02-06T09:21:14.260Z,5
2023-02-06T09:23:14.292Z,5
2023-02-06T09:24:14.989Z,5
2023-02-06T09:25:14.446Z,5
2023-02-06T09:26:14.133Z,5
2023-02-06T09:27:14.474Z,5
2023-02-06T09:28:14.313Z,5
2023-02-06T09:29:14.570Z,5
2023-02-06T09:30:14.238Z,5
2023-02-06T09:31:15.330Z,5
2023-02-06T09:32:14.243Z,1
2023-02-06T09:33:14.582Z,1
2023-02-06T09:34:14.199Z,1
2023-02-06T09:35:15.027Z,1
2023-02-06T09:36:14.652Z,1
2023-02-06T09:37:14.443Z,1
2023-02-06T09:39:14.357Z,1
2023-02-06T09:40:14.002Z,1
2023-02-06T09:41:14.560Z,1
2023-02-06T10:21:14.364Z,1
2023-02-06T10:29:15.920Z,1
2023-02-06T10:33:33.148Z,3
2023-02-06T10:42:14.388Z,3
2023-02-06T10:45:31.608Z,3
2023-02-06T11:01:33.587Z,1
2023-02-06T11:02:14.861Z,0
2023-02-06T11:04:14.695Z,0
2023-02-06T11:13:14.121Z,0
2023-02-06T11:20:14.402Z,1
2023-02-06T11:21:14.729Z,1
2023-02-06T11:36:14.536Z,0
2023-02-06T11:49:14.355Z,4
2023-02-06T12:00:14.966Z,4
2023-02-06T12:01:14.351Z,4
2023-02-06T12:15:55.977Z,8
2023-02-06T12:24:14.702Z,7
2023-02-06T12:32:14.146Z,8
2023-02-06T12:38:14.250Z,8
2023-02-06T13:01:38.460Z,4
2023-02-06T13:11:14.838Z,5
2023-02-06T13:19:14.359Z,4
2023-02-06T13:35:14.430Z,4
2023-02-06T13:46:14.908Z,4
2023-02-06T13:50:13.993Z,1
2023-02-06T13:59:14.267Z,1
2023-02-06T14:33:13.853Z,3
2023-02-06T14:37:14.195Z,3
2023-02-06T14:44:18.670Z,3
2023-02-06T14:46:21.506Z,3
2023-02-06T15:09:14.257Z,5
2023-02-06T15:21:14.891Z,3
2023-02-06T15:23:29.344Z,3
2023-02-06T15:48:14.216Z,1
2023-02-06T15:55:14.716Z,1
2023-02-06T16:02:14.388Z,4
2023-02-06T16:09:14.115Z,4
2023-02-06T16:19:14.023Z,6
2023-02-06T16:22:14.015Z,6
2023-02-06T16:31:15.147Z,6
2023-02-06T16:34:14.036Z,4
2023-02-06T16:35:14.636Z,4
2023-02-06T17:02:13.975Z,1
2023-02-06T17:03:14.639Z,1
2023-02-06T17:18:14.258Z,3
2023-02-06T17:36:16.248Z,4
2023-02-06T17:37:14.920Z,4
2023-02-06T17:53:13.902Z,5
2023-02-06T18:02:14.507Z,1
2023-02-06T18:05:14.342Z,1
2023-02-06T18:06:15.301Z,1
2023-02-06T18:17:14.232Z,5
2023-02-06T18:21:14.758Z,5
2023-02-06T18:25:13.939Z,5
2023-02-06T18:30:14.066Z,5
2023-02-06T18:32:14.684Z,1
2023-02-06T18:43:14.493Z,1
2023-02-06T18:52:14.534Z,3
2023-02-06T19:06:14.706Z,3
2023-02-06T19:09:14.609Z,3
2023-02-06T19:10:14.198Z,3
2023-02-06T19:15:14.185Z,3
2023-02-06T19:22:14.418Z,4
2023-02-06T19:23:14.215Z,4
2023-02-06T19:25:18.924Z,4
2023-02-06T19:34:14.378Z,1
2023-02-06T19:39:14.686Z,1
2023-02-06T19:51:14.200Z,1
2023-02-06T19:52:14.738Z,1
2023-02-06T20:04:13.862Z,3
2023-02-06T20:10:14.692Z,3
2023-02-06T20:11:14.168Z,3
2023-02-06T20:14:13.851Z,3
2023-02-06T20:17:14.316Z,5
2023-02-06T20:21:14.575Z,5
2023-02-06T20:23:14.880Z,5
2023-02-06T20:26:14.395Z,5
2023-02-06T20:27:13.887Z,5
2023-02-06T20:33:14.899Z,4
2023-02-06T20:38:14.895Z,4
2023-02-06T21:15:14.910Z,0
2023-02-06T21:25:14.835Z,0
2023-02-06T21:32:26.240Z,0
2023-02-06T21:43:14.401Z,0
2023-02-06T21:49:14.779Z,1
2023-02-06T21:55:16.397Z,1
2023-02-06T21:59:14.198Z,1
2023-02-06T22:04:14.785Z,0
2023-02-06T22:06:15.052Z,0
2023-02-06T22:09:14.526Z,0
2023-02-06T22:25:14.540Z,3
2023-02-06T22:26:14.176Z,3
2023-02-06T22:54:14.756Z,3
2023-02-06T22:59:14.018Z,3
2023-02-06T23:01:15.182Z,3
2023-02-06T23:07:14.621Z,7
2023-02-06T23:11:14.173Z,7
2023-02-06T23:23:14.138Z,6
2023-02-06T23:29:14.177Z,6
2023-02-06T23:33:14.528Z,5
2023-02-06T23:37:14.206Z,5
2023-02-06T23:40:14.154Z,5
2023-02-06T23:59:14.289Z,5
